Time;durP1;ratioP1;P1;durP2;ratioP2;P2;SDS_P1;SDS_P2;PMS_P1;PMS_P2;Temp;Humidity;BMP_temperature;BMP_pressure;BME280_temperature;BME280_humidity;BME280_pressure;Samples;Min_cycle;Max_cycle;Signal;HPM_P1;HPM_P2
2022/10/04 00:00:24;;;;;;;14.23;10.87;;;;;;;-142.65;94.74;50174.75;5095908;28;20206;-67
2022/10/04 00:02:52;;;;;;;10.07;9.43;;;;;;;-142.65;94.55;50174.75;5095946;28;20181;-67
2022/10/04 00:05:22;;;;;;;11.67;10.33;;;;;;;-142.65;94.71;50178.75;5096081;28;20662;-67
2022/10/04 00:07:54;;;;;;;11.30;10.27;;;;;;;-142.65;94.77;50164.81;5096118;28;20174;-67
2022/10/04 00:10:23;;;;;;;14.13;10.57;;;;;;;;;;5095673;28;20209;-67
2022/10/04 00:13:02;;;;;;;12.43;10.73;;;;;;;-142.65;94.85;50170.78;5095307;28;20561;-67
2022/10/04 00:15:39;;;;;;;12.60;10.60;;;;;;;-142.65;94.91;50164.81;5095386;28;20178;-67
2022/10/04 00:18:11;;;;;;;11.77;10.60;;;;;;;-142.65;95.01;50170.78;5095663;28;20181;-67
2022/10/04 00:20:49;;;;;;;14.73;9.80;;;;;;;-142.65;95.07;50172.78;5095298;28;20205;-68
2022/10/04 00:23:21;;;;;;;12.93;10.93;;;;;;;;;;5095283;28;20178;-68
2022/10/04 00:25:49;;;;;;;17.60;10.80;;;;;;;-142.65;95.12;50172.78;5095487;28;20178;-68
2022/10/04 00:28:24;;;;;;;16.23;10.07;;;;;;;-142.65;95.28;50174.75;5095393;28;20193;-68
2022/10/04 00:31:22;;;;;;;13.07;9.67;;;;;;;-142.65;95.17;50164.81;5095267;28;20209;-68
2022/10/04 00:33:50;;;;;;;11.20;9.93;;;;;;;-142.65;95.20;50170.78;5095022;28;20273;-67
2022/10/04 00:36:22;;;;;;;15.60;11.07;;;;;;;;;;5095321;28;20201;-67
2022/10/04 00:39:04;;;;;;;12.47;9.57;;;;;;;;;;5095167;28;20546;-67
2022/10/04 00:41:55;;;;;;;10.53;9.70;;;;;;;-142.65;95.38;50170.78;5095185;28;20521;-67
2022/10/04 00:44:25;;;;;;;15.47;10.40;;;;;;;;;;5094833;28;20178;-67
2022/10/04 00:46:54;;;;;;;10.70;9.73;;;;;;;-142.65;95.41;50174.75;5095317;28;20174;-67
2022/10/04 00:49:26;;;;;;;10.83;9.77;;;;;;;-142.65;95.38;50178.75;5095045;28;20205;-67
2022/10/04 00:52:11;;;;;;;12.17;9.93;;;;;;;-142.65;95.46;50180.75;5094925;28;20190;-67
2022/10/04 00:54:43;;;;;;;11.03;9.87;;;;;;;-142.65;95.52;50170.78;5094938;28;20197;-67
2022/10/04 00:57:27;;;;;;;11.30;10.40;;;;;;;-142.65;95.33;50168.78;5094884;28;20526;-67
2022/10/04 01:00:02;;;;;;;12.63;10.93;;;;;;;-142.65;95.41;50174.75;5094584;28;20209;-67
2022/10/04 01:02:43;;;;;;;17.77;9.97;;;;;;;-142.65;95.33;50174.75;5093540;28;20181;-67
2022/10/04 01:05:16;;;;;;;11.73;10.63;;;;;;;-142.65;95.37;50170.78;5094766;28;20188;-67
2022/10/04 01:07:51;;;;;;;15.00;9.43;;;;;;;-142.65;95.36;50170.78;5094676;28;20177;-67
2022/10/04 01:10:21;;;;;;;17.30;8.97;;;;;;;-142.65;95.23;50170.78;5094300;28;20213;-67
2022/10/04 01:12:55;;;;;;;15.60;10.00;;;;;;;-142.65;95.19;50174.75;5094388;28;20197;-67
2022/10/04 01:15:41;;;;;;;10.83;9.63;;;;;;;-142.65;95.21;50178.75;5094538;28;20173;-67
2022/10/04 01:18:14;;;;;;;10.30;9.13;;;;;;;-142.65;95.07;50170.78;5094207;28;20231;-67
2022/10/04 01:20:47;;;;;;;11.30;9.57;;;;;;;-142.65;95.20;50170.78;5094092;28;20206;-67
2022/10/04 01:23:30;;;;;;;12.53;9.17;;;;;;;-142.65;95.14;50170.78;5094173;28;20177;-67
2022/10/04 01:25:56;;;;;;;9.87;8.83;;;;;;;-142.65;95.12;50174.75;5094372;28;20182;-67
2022/10/04 01:28:22;;;;;;;10.93;9.97;;;;;;;-142.65;95.14;50168.78;5094032;28;20197;-67
2022/10/04 01:30:49;;;;;;;11.20;9.37;;;;;;;-142.65;95.11;50170.78;5093868;28;20201;-68
2022/10/04 01:33:16;;;;;;;12.97;10.53;;;;;;;;;;5093946;28;20525;-67
2022/10/04 01:35:43;;;;;;;11.53;10.37;;;;;;;;;;5094184;28;20193;-67
2022/10/04 01:38:11;;;;;;;9.93;9.13;;;;;;;-142.65;95.26;50168.78;5093865;28;20181;-67
2022/10/04 01:40:47;;;;;;;10.97;9.60;;;;;;;-142.65;95.20;50168.78;5093750;28;20201;-67
2022/10/04 01:43:20;;;;;;;14.77;9.80;;;;;;;-142.65;95.26;50174.75;5094364;28;20181;-68
2022/10/04 01:45:53;;;;;;;11.63;10.17;;;;;;;-142.65;95.45;50174.75;5093758;28;20185;-68
2022/10/04 01:48:28;;;;;;;12.33;9.97;;;;;;;-142.65;95.49;50174.75;5093724;28;20182;-67
2022/10/04 01:51:07;;;;;;;15.97;11.03;;;;;;;-142.65;95.40;50178.75;5093605;28;20220;-67
2022/10/04 01:53:43;;;;;;;11.33;9.37;;;;;;;-142.65;95.21;50170.78;5093948;28;20174;-67
2022/10/04 01:56:14;;;;;;;8.90;8.23;;;;;;;-142.65;95.14;50174.75;5093883;28;20287;-67
2022/10/04 01:58:48;;;;;;;10.53;9.77;;;;;;;-142.65;95.29;50178.75;5094065;28;20612;-68
2022/10/04 02:01:21;;;;;;;10.37;9.60;;;;;;;;;;5094104;28;20174;-67
2022/10/04 02:03:58;;;;;;;9.23;8.63;;;;;;;-142.65;95.44;50164.81;5093763;28;20712;-67
2022/10/04 02:06:24;;;;;;;9.63;8.93;;;;;;;-142.65;95.33;50178.75;5093487;28;20189;-67
2022/10/04 02:08:56;;;;;;;9.83;9.13;;;;;;;-142.65;95.25;50168.78;5093629;28;20565;-67
2022/10/04 02:11:23;;;;;;;10.43;8.83;;;;;;;;;;5093342;28;20204;-67
2022/10/04 02:13:53;;;;;;;13.90;9.60;;;;;;;-142.65;95.25;50170.78;5093045;28;20193;-67
2022/10/04 02:16:21;;;;;;;9.77;8.90;;;;;;;-142.65;95.20;50164.81;5093927;28;20178;-67
2022/10/04 02:18:49;;;;;;;10.27;8.73;;;;;;;-142.65;95.20;50168.78;5093352;28;20177;-68
2022/10/04 02:21:18;;;;;;;15.83;9.30;;;;;;;-142.65;95.22;50178.75;5093845;28;20170;-67
2022/10/04 02:23:46;;;;;;;9.77;9.07;;;;;;;-142.65;95.17;50170.78;5093301;28;20182;-68
2022/10/04 02:26:12;;;;;;;10.13;9.33;;;;;;;-142.65;95.28;50172.78;5093195;28;20652;-68
2022/10/04 02:28:39;;;;;;;12.37;9.70;;;;;;;-142.65;95.20;50170.78;5093699;28;20196;-68
2022/10/04 02:33:57;;;;;;;10.50;9.50;;;;;;;-142.65;95.16;50176.75;5093476;28;20261;-67
2022/10/04 02:36:26;;;;;;;12.43;11.10;;;;;;;-142.65;95.33;50172.78;5093745;28;20170;-67
2022/10/04 02:39:23;;;;;;;15.33;10.27;;;;;;;-142.65;95.28;50170.78;5093039;28;20264;-68
2022/10/04 02:42:11;;;;;;;10.43;9.53;;;;;;;-142.65;95.25;50168.78;5091212;28;20216;-67
2022/10/04 02:44:45;;;;;;;11.03;9.60;;;;;;;-142.65;95.31;50170.78;5093099;28;20178;-67
2022/10/04 02:47:19;;;;;;;11.10;9.80;;;;;;;-142.65;95.41;50174.75;5093383;28;20185;-67
2022/10/04 02:49:54;;;;;;;11.13;8.67;;;;;;;;;;5093272;28;20214;-68
2022/10/04 02:52:26;;;;;;;10.93;8.33;;;;;;;-142.65;95.26;50168.78;5093167;28;20720;-68
2022/10/04 02:55:01;;;;;;;10.77;9.70;;;;;;;-142.65;95.55;50170.78;5093312;28;20170;-68
2022/10/04 02:57:31;;;;;;;11.20;10.03;;;;;;;-142.65;95.23;50164.81;5093302;28;20185;-67
2022/10/04 03:00:23;;;;;;;15.07;11.43;;;;;;;-142.65;95.38;50172.78;5093190;28;20206;-68
2022/10/04 03:03:08;;;;;;;10.80;9.77;;;;;;;-142.65;95.38;50170.78;5081664;28;20198;-68
2022/10/04 03:05:34;;;;;;;9.97;9.17;;;;;;;;;;5093185;28;20178;-67
2022/10/04 03:08:03;;;;;;;9.80;9.00;;;;;;;-142.65;95.38;50168.78;5092857;28;20209;-67
2022/10/04 03:10:30;;;;;;;11.57;10.40;;;;;;;;;;5093326;28;20216;-68
2022/10/04 03:12:56;;;;;;;12.60;9.43;;;;;;;-142.65;95.21;50172.78;5092687;28;20200;-68
2022/10/04 03:15:23;;;;;;;11.37;9.67;;;;;;;-142.65;95.17;50168.78;5092848;28;20185;-68
2022/10/04 03:17:50;;;;;;;9.30;8.47;;;;;;;-142.65;95.18;50170.78;5093062;28;20182;-67
2022/10/04 03:20:20;;;;;;;13.97;9.40;;;;;;;-142.65;95.17;50170.78;5093267;28;20205;-67
2022/10/04 03:22:51;;;;;;;10.63;9.73;;;;;;;-142.65;95.16;50170.78;5093048;28;20182;-67
2022/10/04 03:25:30;;;;;;;9.53;8.80;;;;;;;-142.65;95.21;50172.78;5094391;28;20178;-67
2022/10/04 03:28:00;;;;;;;11.80;9.83;;;;;;;;;;5096635;28;20185;-67
2022/10/04 03:30:28;;;;;;;10.27;9.03;;;;;;;-142.65;95.37;50172.78;5096534;28;20233;-67
2022/10/04 03:32:55;;;;;;;10.60;9.70;;;;;;;;;;5096265;28;20208;-67
2022/10/04 03:35:50;;;;;;;9.90;9.20;;;;;;;-142.65;95.44;50170.78;5096218;28;20193;-67
2022/10/04 03:38:17;;;;;;;9.70;8.73;;;;;;;-142.65;95.41;50168.78;5093463;28;20201;-67
2022/10/04 03:40:52;;;;;;;9.27;8.37;;;;;;;-142.65;95.48;50170.78;5096291;28;20205;-67
2022/10/04 03:43:23;;;;;;;10.63;9.53;;;;;;;-142.65;95.53;50170.78;5096316;28;20181;-67
2022/10/04 03:45:51;;;;;;;10.87;9.80;;;;;;;-142.65;95.45;50172.78;5096293;28;20187;-67
2022/10/04 03:48:27;;;;;;;9.07;8.27;;;;;;;-142.65;95.39;50174.75;5095963;28;20178;-67
2022/10/04 03:50:54;;;;;;;9.73;9.03;;;;;;;-142.65;95.44;50180.75;5095813;28;20212;-67
2022/10/04 03:53:23;;;;;;;15.40;9.50;;;;;;;-142.65;95.33;50170.78;5095863;28;20276;-67
2022/10/04 03:55:51;;;;;;;9.77;8.77;;;;;;;-142.65;95.30;50168.78;5095771;28;20192;-67
2022/10/04 03:58:19;;;;;;;11.60;8.77;;;;;;;-142.65;95.22;50174.75;5095776;28;20194;-67
2022/10/04 04:00:57;;;;;;;14.47;10.00;;;;;;;-142.65;95.45;50170.78;5095900;28;20599;-67
2022/10/04 04:03:27;;;;;;;11.40;10.30;;;;;;;-142.65;95.43;50170.78;5095955;28;20197;-67
2022/10/04 04:05:59;;;;;;;11.63;10.43;;;;;;;-142.65;95.47;50164.81;5095616;28;20201;-67
2022/10/04 04:08:28;;;;;;;10.00;8.43;;;;;;;;;;5095561;28;20200;-67
2022/10/04 04:10:58;;;;;;;14.20;9.03;;;;;;;-142.65;95.38;50176.75;5095420;28;20280;-67
2022/10/04 04:13:57;;;;;;;10.20;9.43;;;;;;;-142.65;95.38;50172.78;5095459;28;20196;-67
2022/10/04 04:16:25;;;;;;;10.90;9.57;;;;;;;-142.65;95.36;50170.78;5095706;28;20178;-67
2022/10/04 04:18:54;;;;;;;9.90;9.07;;;;;;;-142.65;95.47;50172.78;5096028;28;20190;-68
2022/10/04 04:21:23;;;;;;;10.97;8.90;;;;;;;-142.65;95.57;50170.78;5095252;28;20178;-68
2022/10/04 04:23:55;;;;;;;11.93;10.60;;;;;;;-142.65;95.50;50164.81;5095145;28;20190;-67
2022/10/04 04:26:38;;;;;;;16.63;10.07;;;;;;;-142.65;95.60;50170.78;5095518;28;20187;-67
2022/10/04 04:29:06;;;;;;;9.27;8.57;;;;;;;-142.65;95.63;50182.72;5095559;28;20209;-67
2022/10/04 04:31:41;;;;;;;9.27;8.63;;;;;;;-142.65;95.63;50174.75;5095017;28;20212;-67
2022/10/04 04:34:17;;;;;;;15.33;8.53;;;;;;;-142.65;95.62;50162.81;5095005;28;20177;-67
2022/10/04 04:36:44;;;;;;;13.40;11.03;;;;;;;-142.65;95.74;50172.78;5095186;28;20529;-67
2022/10/04 04:39:33;;;;;;;10.67;9.70;;;;;;;;;;5095069;28;20220;-68
2022/10/04 04:42:10;;;;;;;10.17;9.33;;;;;;;-142.65;95.71;50168.78;5095173;28;20634;-67
2022/10/04 04:44:45;;;;;;;10.03;9.20;;;;;;;-142.65;95.72;50172.78;5095056;28;20560;-67
2022/10/04 04:47:24;;;;;;;15.97;9.43;;;;;;;-142.65;95.82;50168.78;5094765;28;20181;-67
2022/10/04 04:49:51;;;;;;;9.27;8.67;;;;;;;-142.65;95.84;50178.75;5094731;28;20213;-67
2022/10/04 04:52:19;;;;;;;11.87;10.57;;;;;;;;;;5095305;28;20206;-67
2022/10/04 04:54:46;;;;;;;11.13;9.70;;;;;;;-142.65;95.90;50164.81;5095191;28;20187;-67
2022/10/04 04:57:16;;;;;;;11.77;10.50;;;;;;;-142.65;96.05;50168.78;5094755;28;20180;-67
2022/10/04 04:59:46;;;;;;;11.27;10.17;;;;;;;-142.65;96.08;50164.81;5094773;28;20205;-67
2022/10/04 05:02:30;;;;;;;11.13;9.93;;;;;;;-142.65;96.11;50172.78;5094823;28;20169;-67
2022/10/04 05:05:17;;;;;;;10.70;9.87;;;;;;;-142.65;96.32;50174.75;5094765;28;20182;-67
2022/10/04 05:07:43;;;;;;;9.77;9.07;;;;;;;-142.65;96.37;50174.75;5094661;28;20189;-67
2022/10/04 05:10:41;;;;;;;17.93;10.30;;;;;;;-142.65;96.48;50162.81;5094276;28;20205;-67
2022/10/04 05:13:10;;;;;;;9.67;8.90;;;;;;;-142.65;96.51;50178.75;5074670;28;20241;-67
2022/10/04 05:15:39;;;;;;;11.17;9.03;;;;;;;-142.65;96.55;50174.75;5094203;28;20659;-67
2022/10/04 05:18:27;;;;;;;10.73;9.53;;;;;;;-142.65;96.55;50168.78;5094163;28;20675;-67
2022/10/04 05:20:57;;;;;;;17.10;11.03;;;;;;;-142.65;96.69;50170.78;5094052;28;20216;-67
2022/10/04 05:23:23;;;;;;;12.53;9.30;;;;;;;-142.65;96.82;50174.75;5094147;28;20589;-67
2022/10/04 05:25:50;;;;;;;12.63;10.73;;;;;;;-142.65;96.78;50170.78;5094064;28;20189;-67
2022/10/04 05:28:17;;;;;;;11.00;9.83;;;;;;;-142.65;96.82;50168.78;5094237;28;20182;-67
2022/10/04 05:30:56;;;;;;;16.90;10.50;;;;;;;-142.65;96.89;50168.78;5093829;28;20687;-67
2022/10/04 05:33:37;;;;;;;10.57;9.67;;;;;;;-142.65;96.85;50178.75;5094073;28;20206;-67
2022/10/04 05:36:46;;;;;;;11.07;9.27;;;;;;;-142.65;96.96;50174.75;5094181;28;20181;-67
2022/10/04 05:39:23;;;;;;;14.27;9.27;;;;;;;-142.65;96.96;50178.75;5093713;28;20205;-67
2022/10/04 05:42:11;;;;;;;9.40;8.43;;;;;;;-142.65;96.84;50174.75;5094083;28;20535;-67
2022/10/04 05:44:56;;;;;;;10.33;9.43;;;;;;;;;;5094325;28;20513;-67
2022/10/04 05:47:29;;;;;;;9.27;8.57;;;;;;;-142.65;96.86;50174.75;5093535;28;20180;-67
2022/10/04 05:49:57;;;;;;;10.20;9.27;;;;;;;-142.65;96.94;50164.81;5093902;28;20209;-67
2022/10/04 05:52:36;;;;;;;9.87;9.17;;;;;;;-142.65;96.96;50164.81;5093613;28;20573;-67
2022/10/04 05:55:11;;;;;;;16.60;9.20;;;;;;;;;;5093810;28;20666;-67
2022/10/04 05:58:00;;;;;;;15.53;10.63;;;;;;;-142.65;96.93;50172.78;5094166;28;20188;-67
2022/10/04 06:00:53;;;;;;;11.03;10.00;;;;;;;-142.65;96.93;50170.78;5093637;28;20215;-67
2022/10/04 06:03:42;;;;;;;15.13;10.27;;;;;;;-142.65;96.92;50170.78;5093553;28;20186;-67
2022/10/04 06:06:28;;;;;;;22.77;11.30;;;;;;;-142.65;96.88;50176.75;5093729;28;20175;-67
2022/10/04 06:09:12;;;;;;;12.43;10.53;;;;;;;-142.65;96.93;50176.75;5093962;28;20537;-68
2022/10/04 06:11:47;;;;;;;11.20;10.07;;;;;;;-142.65;96.92;50174.75;5093497;28;20200;-67
2022/10/04 06:14:30;;;;;;;19.67;10.03;;;;;;;-142.65;97.05;50168.78;5093587;28;20532;-67
2022/10/04 06:17:18;;;;;;;19.27;10.90;;;;;;;-142.65;97.02;50164.81;5093358;28;20178;-67
2022/10/04 06:20:12;;;;;;;10.60;9.77;;;;;;;-142.65;97.07;50176.75;5093292;28;20557;-67
2022/10/04 06:22:44;;;;;;;10.90;9.87;;;;;;;-142.65;97.07;50174.75;5093564;28;20540;-67
2022/10/04 06:25:27;;;;;;;11.10;10.00;;;;;;;-142.65;97.00;50170.78;5093229;28;20182;-67
2022/10/04 06:28:10;;;;;;;10.63;9.50;;;;;;;-142.65;97.01;50162.81;5093551;28;20196;-68
2022/10/04 06:30:52;;;;;;;15.37;9.73;;;;;;;;;;5093356;28;20216;-68
2022/10/04 06:33:42;;;;;;;11.57;10.27;;;;;;;-142.65;96.97;50170.78;5093608;28;20671;-67
2022/10/04 06:36:19;;;;;;;14.13;10.03;;;;;;;-142.65;96.96;50182.72;5082419;28;20201;-68
2022/10/04 06:39:01;;;;;;;12.50;9.57;;;;;;;-142.65;96.93;50170.78;5093067;28;20170;-68
2022/10/04 06:41:41;;;;;;;11.00;10.00;;;;;;;;;;5093169;28;20178;-67
2022/10/04 06:44:13;;;;;;;14.53;9.47;;;;;;;;;;5093653;28;20174;-67
2022/10/04 06:46:49;;;;;;;10.63;9.53;;;;;;;-142.65;96.98;50170.78;5093035;28;20182;-67
2022/10/04 06:49:54;;;;;;;18.00;10.97;;;;;;;-142.65;97.01;50176.75;5093146;28;20716;-68
2022/10/04 06:52:27;;;;;;;23.80;11.63;;;;;;;-142.65;97.02;50174.75;5075607;28;20228;-67
2022/10/04 06:55:36;;;;;;;14.27;9.50;;;;;;;-142.65;96.95;50168.78;5093254;28;20178;-67
2022/10/04 06:58:31;;;;;;;11.57;9.83;;;;;;;-142.65;97.01;50176.75;5092951;28;20658;-67
2022/10/04 07:01:39;;;;;;;18.80;10.23;;;;;;;-142.65;97.06;50164.81;5095397;28;20213;-68
2022/10/04 07:04:30;;;;;;;10.30;9.50;;;;;;;-142.65;97.15;50174.75;5092330;28;20243;-67
2022/10/04 07:07:36;;;;;;;18.07;9.93;;;;;;;-142.65;97.07;50162.81;5097289;28;20174;-67
2022/10/04 07:10:05;;;;;;;13.73;11.43;;;;;;;;;;5096624;28;20216;-67
2022/10/04 07:12:32;;;;;;;10.30;9.50;;;;;;;;;;5096706;28;20220;-67
2022/10/04 07:15:02;;;;;;;11.93;9.80;;;;;;;-142.65;97.12;50170.78;5097149;28;20185;-67
2022/10/04 07:17:36;;;;;;;12.87;9.80;;;;;;;-142.65;97.10;50170.78;5097102;28;20527;-67
2022/10/04 07:20:05;;;;;;;11.70;10.10;;;;;;;-142.65;97.05;50170.78;5096533;28;20205;-68
2022/10/04 07:22:40;;;;;;;11.73;10.53;;;;;;;-142.65;97.23;50168.78;5096442;28;20185;-67
2022/10/04 07:25:18;;;;;;;17.07;11.27;;;;;;;-142.65;97.07;50170.78;5096544;28;20635;-67
2022/10/04 07:31:02;;;;;;;10.53;9.60;;;;;;;-142.65;96.91;50174.75;5096765;28;20212;-67
2022/10/04 07:33:33;;;;;;;10.00;8.87;;;;;;;-142.65;96.59;50170.78;5096427;28;20190;-67
2022/10/04 07:36:04;;;;;;;15.50;9.53;;;;;;;;;;5096137;28;20182;-67
2022/10/04 07:38:34;;;;;;;9.97;8.93;;;;;;;-142.65;96.24;50172.78;5096471;28;20538;-67
2022/10/04 07:41:16;;;;;;;11.17;10.03;;;;;;;-142.65;95.98;50168.78;5096014;28;20209;-68
2022/10/04 07:43:50;;;;;;;16.50;9.67;;;;;;;;;;5096095;28;20185;-68
2022/10/04 07:46:36;;;;;;;11.70;9.97;;;;;;;;;;5096287;28;20170;-67
2022/10/04 07:49:02;;;;;;;10.73;9.50;;;;;;;-142.65;95.22;50170.78;5096040;28;20727;-68
2022/10/04 07:51:38;;;;;;;21.10;9.10;;;;;;;-142.65;94.88;50164.81;5096318;28;20572;-67
2022/10/04 07:54:09;;;;;;;7.97;7.57;;;;;;;-142.65;94.45;50168.78;5096102;28;20223;-67
2022/10/04 07:56:37;;;;;;;7.80;7.17;;;;;;;;;;5095978;28;20188;-67
2022/10/04 07:59:28;;;;;;;8.50;7.90;;;;;;;-142.65;94.14;50170.78;5095938;28;20201;-68
2022/10/04 08:02:26;;;;;;;14.73;6.97;;;;;;;-142.65;93.39;50164.81;5095741;28;20184;-67
2022/10/04 08:05:11;;;;;;;12.67;7.10;;;;;;;-142.65;92.93;50164.81;5096223;28;20170;-67
2022/10/04 08:07:49;;;;;;;9.40;6.77;;;;;;;;;;5095935;28;20170;-67
2022/10/04 08:10:25;;;;;;;9.80;6.17;;;;;;;;;;5095246;28;20261;-67
2022/10/04 08:12:51;;;;;;;7.03;6.53;;;;;;;;;;5095476;28;20211;-67
2022/10/04 08:15:22;;;;;;;7.03;6.30;;;;;;;;;;5095458;28;20573;-67
2022/10/04 08:18:24;;;;;;;10.67;6.73;;;;;;;-142.65;88.23;50162.81;5095685;28;20178;-67
2022/10/04 08:21:05;;;;;;;6.17;5.77;;;;;;;-142.65;85.82;50174.75;5054709;28;20557;-68
2022/10/04 08:23:48;;;;;;;6.17;5.80;;;;;;;-142.65;84.86;50164.81;5095743;28;20170;-67
2022/10/04 08:26:14;;;;;;;5.70;5.47;;;;;;;;;;5095410;28;20181;-67
2022/10/04 08:31:58;;;;;;;8.53;5.17;;;;;;;-142.65;84.00;50164.81;5095093;28;20194;-67
2022/10/04 08:34:51;;;;;;;6.10;5.53;;;;;;;;;;5095315;28;20182;-67
2022/10/04 08:37:46;;;;;;;5.03;4.73;;;;;;;-142.65;81.28;50172.78;5094946;28;20186;-67
2022/10/04 08:40:12;;;;;;;6.33;5.70;;;;;;;-142.65;80.71;50170.78;5094848;28;20210;-67
2022/10/04 08:42:59;;;;;;;5.50;5.13;;;;;;;;;;5095174;28;20174;-67
2022/10/04 08:45:47;;;;;;;5.97;5.67;;;;;;;-142.65;80.29;50170.78;5044456;28;20263;-67
2022/10/04 08:48:38;;;;;;;6.67;5.13;;;;;;;-142.65;78.96;50162.81;5095079;28;20182;-67
2022/10/04 08:51:11;;;;;;;5.50;5.30;;;;;;;;;;5095009;28;20182;-67
2022/10/04 08:53:56;;;;;;;7.60;5.10;;;;;;;;;;5095126;28;20204;-67
2022/10/04 08:56:37;;;;;;;4.87;4.50;;;;;;;;;;5094888;28;20186;-67
2022/10/04 08:59:31;;;;;;;6.13;4.53;;;;;;;-142.65;74.53;50170.78;5094583;28;20213;-68
2022/10/04 09:02:20;;;;;;;5.47;5.20;;;;;;;-142.65;75.47;50160.81;5095114;28;20548;-67
2022/10/04 09:05:03;;;;;;;5.10;4.87;;;;;;;-142.65;74.24;50164.81;5076313;28;20190;-67
2022/10/04 09:07:59;;;;;;;6.03;4.70;;;;;;;-142.65;75.00;50172.78;5094743;28;20640;-67
2022/10/04 09:10:36;;;;;;;4.93;4.60;;;;;;;-142.65;73.98;50162.81;5094432;28;20220;-67
2022/10/04 09:13:11;;;;;;;4.27;4.17;;;;;;;-142.65;72.55;50168.78;5094296;28;20209;-67
2022/10/04 09:15:52;;;;;;;5.57;5.20;;;;;;;-142.65;73.68;50164.81;5094905;28;20608;-67
2022/10/04 09:18:28;;;;;;;4.77;4.67;;;;;;;-142.65;74.36;50164.81;5094543;28;20174;-67
2022/10/04 09:21:29;;;;;;;5.03;4.57;;;;;;;;;;5094152;28;20209;-67
2022/10/04 09:24:08;;;;;;;5.10;4.33;;;;;;;-142.65;73.20;50170.78;4992413;28;20276;-67
2022/10/04 09:26:44;;;;;;;4.87;4.40;;;;;;;-142.65;73.56;50168.78;5081959;28;20206;-67
2022/10/04 09:29:19;;;;;;;4.23;3.93;;;;;;;;;;5093962;28;20220;-67
2022/10/04 09:31:54;;;;;;;4.50;4.20;;;;;;;-142.65;70.95;50162.81;5094044;28;20177;-67
2022/10/04 09:34:37;;;;;;;4.20;4.10;;;;;;;-142.65;70.38;50164.81;5094144;28;20201;-67
2022/10/04 09:37:03;;;;;;;5.20;4.83;;;;;;;-142.65;71.44;50162.81;5094149;28;20186;-67
2022/10/04 09:39:45;;;;;;;5.13;4.90;;;;;;;-142.65;70.50;50164.81;5094142;28;20593;-67
2022/10/04 09:42:18;;;;;;;5.53;4.43;;;;;;;-142.65;69.64;50172.78;5094109;28;20515;-67
2022/10/04 09:44:54;;;;;;;4.87;4.67;;;;;;;-142.65;69.94;50162.81;5094110;28;20200;-67
2022/10/04 09:47:21;;;;;;;3.93;3.73;;;;;;;;;;5093739;28;20188;-67
2022/10/04 09:49:58;;;;;;;4.30;4.00;;;;;;;;;;5093564;28;20210;-67
2022/10/04 09:52:40;;;;;;;3.70;3.60;;;;;;;-142.65;68.14;50117.00;5093533;28;20180;-67
2022/10/04 09:55:21;;;;;;;5.47;3.40;;;;;;;-142.65;68.83;50174.75;5094070;28;20181;-67
2022/10/04 09:58:13;;;;;;;4.03;3.83;;;;;;;-142.65;67.34;50162.81;5093878;28;20182;-67
2022/10/04 10:00:58;;;;;;;4.03;3.63;;;;;;;-142.65;67.19;50162.81;5093415;28;20213;-67
2022/10/04 10:03:40;;;;;;;4.30;4.00;;;;;;;-142.65;66.88;50162.81;5093822;28;20532;-67
2022/10/04 10:06:27;;;;;;;4.07;3.80;;;;;;;;;;5093521;28;20655;-67
2022/10/04 10:09:17;;;;;;;3.70;3.60;;;;;;;-142.65;68.49;50162.81;5093918;28;20643;-67
2022/10/04 10:15:01;;;;;;;3.37;3.37;;;;;;;-142.65;69.50;50162.81;5093592;28;20193;-67
2022/10/04 10:17:38;;;;;;;3.87;3.77;;;;;;;-142.65;69.25;50162.81;5093378;28;20169;-67
2022/10/04 10:20:13;;;;;;;8.03;4.47;;;;;;;-142.65;67.95;50162.81;5093488;28;20214;-67
2022/10/04 10:22:57;;;;;;;4.33;4.10;;;;;;;-142.65;66.79;50162.81;5093780;28;20650;-67
2022/10/04 10:25:24;;;;;;;4.57;3.50;;;;;;;-142.65;66.73;50168.78;5093848;28;20188;-67
2022/10/04 10:28:05;;;;;;;7.97;3.50;;;;;;;;;;5093234;28;20190;-67
2022/10/04 10:30:31;;;;;;;3.67;3.27;;;;;;;;;;5093160;28;20560;-67
2022/10/04 10:33:32;;;;;;;4.00;3.80;;;;;;;-142.65;65.38;50164.81;5093637;28;20682;-67
2022/10/04 10:36:07;;;;;;;4.17;3.73;;;;;;;;;;5097702;28;20620;-67
2022/10/04 10:39:15;;;;;;;3.17;3.17;;;;;;;-142.65;65.98;50164.81;5097883;28;20193;-67
2022/10/04 10:41:44;;;;;;;4.33;3.90;;;;;;;;;;5097528;28;20648;-67
2022/10/04 10:44:21;;;;;;;4.87;3.70;;;;;;;-142.65;64.91;50164.81;5097492;28;20190;-67
2022/10/04 10:47:11;;;;;;;3.73;3.63;;;;;;;-142.65;63.79;50164.81;5097440;28;20173;-67
2022/10/04 10:50:05;;;;;;;3.93;3.73;;;;;;;-142.65;65.01;50164.81;5097206;28;20209;-67
2022/10/04 10:52:46;;;;;;;4.43;3.70;;;;;;;;;;5096976;28;20175;-67
2022/10/04 10:55:27;;;;;;;3.17;3.17;;;;;;;-142.65;64.48;50162.81;5097587;28;20178;-67
2022/10/04 10:58:12;;;;;;;3.27;3.07;;;;;;;;;;5097006;28;20177;-67
2022/10/04 11:00:58;;;;;;;4.13;3.93;;;;;;;-142.65;64.49;50162.81;5096770;28;20213;-67
2022/10/04 11:04:00;;;;;;;3.27;3.17;;;;;;;-142.65;64.70;50168.78;5096861;28;20174;-67
2022/10/04 11:07:03;;;;;;;3.60;3.43;;;;;;;-142.65;63.99;50164.81;5065424;28;20202;-67
2022/10/04 11:09:45;;;;;;;4.10;3.20;;;;;;;-142.65;65.54;50162.81;5096886;28;20201;-67
2022/10/04 11:12:30;;;;;;;4.53;2.70;;;;;;;-142.65;65.18;50164.81;5096973;28;20194;-67
2022/10/04 11:15:35;;;;;;;7.10;3.23;;;;;;;-142.65;64.78;50162.81;5096931;28;20170;-67
2022/10/04 11:18:14;;;;;;;3.70;3.40;;;;;;;;;;5096822;28;20197;-67
2022/10/04 11:20:59;;;;;;;16.27;3.60;;;;;;;-142.65;64.49;50162.81;5096724;28;20572;-67
2022/10/04 11:23:57;;;;;;;3.50;3.27;;;;;;;-142.65;65.09;50168.78;5096743;28;20577;-67
2022/10/04 11:27:01;;;;;;;4.43;3.23;;;;;;;-142.65;63.90;50101.06;5096731;28;20624;-67
2022/10/04 11:29:30;;;;;;;3.53;3.23;;;;;;;;;;5096241;28;20213;-67
2022/10/04 11:31:59;;;;;;;3.50;3.30;;;;;;;-142.65;62.95;50118.97;5096572;28;20174;-67
2022/10/04 11:34:49;;;;;;;3.33;3.20;;;;;;;-142.65;62.00;50162.81;5096553;28;20198;-67
2022/10/04 11:37:30;;;;;;;3.03;2.97;;;;;;;-142.65;62.51;50162.81;5096574;28;20516;-67
2022/10/04 11:40:24;;;;;;;3.80;3.53;;;;;;;-142.65;61.59;50164.81;5096230;28;20259;-67
2022/10/04 11:43:06;;;;;;;3.87;3.40;;;;;;;-142.65;63.68;50164.81;5096429;28;20178;-67
2022/10/04 11:46:05;;;;;;;4.10;4.00;;;;;;;-142.65;62.90;50162.81;5095151;28;20190;-67
2022/10/04 11:48:54;;;;;;;3.60;3.60;;;;;;;-142.65;61.82;50164.81;5095990;28;20170;-67
2022/10/04 11:51:57;;;;;;;2.70;2.70;;;;;;;-142.65;61.82;50162.81;5096488;28;20178;-67
2022/10/04 11:54:48;;;;;;;3.10;3.03;;;;;;;-142.65;62.53;50162.81;5096093;28;20292;-67
2022/10/04 11:57:30;;;;;;;3.67;3.57;;;;;;;-142.65;62.25;50160.81;5096052;28;20185;-67
2022/10/04 12:00:15;;;;;;;3.80;3.60;;;;;;;-142.65;60.74;50164.81;5095952;28;20282;-67
2022/10/04 12:02:49;;;;;;;3.13;3.03;;;;;;;-142.65;61.32;50162.81;5077533;28;20210;-67
2022/10/04 12:05:32;;;;;;;4.47;4.20;;;;;;;;;;5095914;28;20197;-67
2022/10/04 12:08:17;;;;;;;3.77;3.67;;;;;;;;;;5095929;28;20185;-67
2022/10/04 12:10:58;;;;;;;3.73;3.53;;;;;;;;;;5095738;28;20220;-68
2022/10/04 12:13:36;;;;;;;3.00;3.00;;;;;;;-142.65;59.52;50164.81;5095325;28;20213;-67
2022/10/04 12:16:28;;;;;;;3.67;3.43;;;;;;;-142.65;59.13;50162.81;5095739;28;20185;-67
2022/10/04 12:19:19;;;;;;;3.50;3.50;;;;;;;-142.65;60.57;50162.81;5095548;28;20197;-67
2022/10/04 12:22:05;;;;;;;3.93;3.60;;;;;;;-142.65;59.57;50164.81;5095352;28;20190;-67
2022/10/04 12:24:49;;;;;;;4.07;3.70;;;;;;;-142.65;58.86;50164.81;5095568;28;20185;-67
2022/10/04 12:27:34;;;;;;;4.13;3.90;;;;;;;-142.65;59.33;50162.81;5095480;28;20180;-67
2022/10/04 12:30:22;;;;;;;3.60;3.23;;;;;;;;;;5095267;28;20221;-67
2022/10/04 12:33:01;;;;;;;3.63;3.63;;;;;;;-142.65;58.72;50162.81;5095727;28;20185;-67
2022/10/04 12:35:51;;;;;;;3.87;2.83;;;;;;;-142.65;57.60;50170.78;5095704;28;20174;-67
2022/10/04 12:38:20;;;;;;;3.53;3.43;;;;;;;-142.65;59.35;50164.81;5095317;28;20174;-67
2022/10/04 12:41:28;;;;;;;3.57;3.37;;;;;;;-142.65;59.08;50164.81;5094922;28;20197;-67
2022/10/04 12:44:19;;;;;;;2.80;2.70;;;;;;;-142.65;58.61;50162.81;4993497;28;20667;-67
2022/10/04 12:46:53;;;;;;;8.93;3.17;;;;;;;-142.65;59.87;50164.81;5094906;28;20181;-67
2022/10/04 12:49:32;;;;;;;3.77;3.50;;;;;;;;;;5094911;28;20219;-68